Time,TemperatureF,DewpointF,PressureIn,WindDirection,WindDirectionDegrees,WindSpeedMPH,WindSpeedGustMPH,Humidity,HourlyPrecipIn,Conditions,Clouds,dailyrainin,SolarRadiationWatts/m^2,SoftwareType,DateUTC
2013-11-30 00:01:00,40.0,24.0,-100.00,ENE,60,2.0,8.0,52,0.00,,,0.00,0.000000,,2013-11-30 08:01:00,
2013-11-30 00:11:00,40.0,24.0,-100.00,ENE,60,2.0,8.0,52,0.00,,,0.00,0.000000,,2013-11-30 08:11:00,
2013-11-30 00:22:00,40.0,24.0,-100.00,ENE,60,2.0,8.0,52,0.00,,,0.00,0.000000,,2013-11-30 08:22:00,
2013-11-30 00:52:00,40.0,24.0,-100.00,East,101,1.0,7.0,52,0.00,,,0.00,0.000000,,2013-11-30 08:52:00,
2013-11-30 01:02:00,40.0,24.0,-100.00,East,101,1.0,7.0,52,0.00,,,0.00,0.000000,,2013-11-30 09:02:00,
2013-11-30 01:11:00,40.0,24.0,-100.00,East,101,1.0,7.0,52,0.00,,,0.00,0.000000,,2013-11-30 09:11:00,
2013-11-30 01:21:00,40.0,24.0,-100.00,East,101,1.0,7.0,52,0.00,,,0.00,0.000000,,2013-11-30 09:21:00,
2013-11-30 01:54:00,38.0,20.0,-100.00,NNE,30,2.0,7.0,48,0.00,,,0.00,0.000000,,2013-11-30 09:54:00,
2013-11-30 02:03:00,38.0,20.0,-100.00,NNE,30,2.0,7.0,48,0.00,,,0.00,0.000000,,2013-11-30 10:03:00,
2013-11-30 02:12:00,38.0,20.0,-100.00,NNE,30,2.0,7.0,48,0.00,,,0.00,0.000000,,2013-11-30 10:12:00,
2013-11-30 02:22:00,38.0,20.0,-100.00,NNE,30,2.0,7.0,48,0.00,,,0.00,0.000000,,2013-11-30 10:22:00,
2013-11-30 02:53:00,40.0,19.0,-100.00,NE,55,3.0,6.0,43,0.00,,,0.00,0.000000,,2013-11-30 10:53:00,
2013-11-30 03:02:00,40.0,19.0,-100.00,NE,55,3.0,6.0,43,0.00,,,0.00,0.000000,,2013-11-30 11:02:00,
2013-11-30 03:12:00,40.0,19.0,-100.00,NE,55,3.0,6.0,43,0.00,,,0.00,0.000000,,2013-11-30 11:12:00,
2013-11-30 03:21:00,40.0,19.0,-100.00,NE,55,3.0,6.0,43,0.00,,,0.00,0.000000,,2013-11-30 11:21:00,
2013-11-30 03:52:00,39.0,18.0,-100.00,NE,42,4.0,8.0,42,0.00,,,0.00,0.000000,,2013-11-30 11:52:00,
2013-11-30 04:02:00,39.0,18.0,-100.00,NE,42,4.0,8.0,42,0.00,,,0.00,0.000000,,2013-11-30 12:02:00,
2013-11-30 04:11:00,39.0,18.0,-100.00,NE,42,4.0,8.0,42,0.00,,,0.00,0.000000,,2013-11-30 12:11:00,
2013-11-30 04:22:00,39.0,18.0,-100.00,NE,42,4.0,8.0,42,0.00,,,0.00,0.000000,,2013-11-30 12:22:00,
2013-11-30 04:52:00,40.0,18.0,-100.00,NE,47,3.0,9.0,41,0.00,,,0.00,0.000000,,2013-11-30 12:52:00,
2013-11-30 05:01:00,40.0,18.0,-100.00,NE,47,3.0,9.0,41,0.00,,,0.00,0.000000,,2013-11-30 13:01:00,
2013-11-30 05:11:00,40.0,18.0,-100.00,NE,47,3.0,9.0,41,0.00,,,0.00,0.000000,,2013-11-30 13:11:00,
2013-11-30 05:21:00,40.0,18.0,-100.00,NE,47,3.0,9.0,41,0.00,,,0.00,0.000000,,2013-11-30 13:21:00,
2013-11-30 05:52:00,40.0,18.0,-100.00,NW,310,2.0,7.0,41,0.00,,,0.00,0.000000,,2013-11-30 13:52:00,
2013-11-30 06:01:00,40.0,18.0,-100.00,NW,310,2.0,7.0,41,0.00,,,0.00,0.000000,,2013-11-30 14:01:00,
2013-11-30 06:12:00,40.0,18.0,-100.00,NW,310,2.0,7.0,41,0.00,,,0.00,0.000000,,2013-11-30 14:12:00,
2013-11-30 06:22:00,40.0,18.0,-100.00,NW,310,2.0,7.0,41,0.00,,,0.00,0.000000,,2013-11-30 14:22:00,
2013-11-30 06:53:00,40.0,20.0,-100.00,ENE,77,2.0,9.0,44,0.00,,,0.00,0.000000,,2013-11-30 14:53:00,
2013-11-30 07:02:00,40.0,20.0,-100.00,ENE,77,2.0,9.0,44,0.00,,,0.00,0.000000,,2013-11-30 15:02:00,
2013-11-30 07:11:00,40.0,20.0,-100.00,ENE,77,2.0,9.0,44,0.00,,,0.00,0.000000,,2013-11-30 15:11:00,
2013-11-30 07:21:00,40.0,20.0,-100.00,ENE,77,2.0,9.0,44,0.00,,,0.00,0.000000,,2013-11-30 15:21:00,
2013-11-30 07:54:00,40.0,18.0,-100.00,ENE,60,2.0,8.0,41,0.00,,,0.00,0.000000,,2013-11-30 15:54:00,
2013-11-30 08:03:00,40.0,18.0,-100.00,ENE,60,2.0,8.0,41,0.00,,,0.00,0.000000,,2013-11-30 16:03:00,
2013-11-30 08:13:00,40.0,18.0,-100.00,ENE,60,2.0,8.0,41,0.00,,,0.00,0.000000,,2013-11-30 16:13:00,
2013-11-30 08:23:00,40.0,18.0,-100.00,ENE,60,2.0,8.0,41,0.00,,,0.00,0.000000,,2013-11-30 16:23:00,
2013-11-30 08:53:00,43.0,17.0,-100.00,NNW,328,2.0,7.0,35,0.00,,,-99.99,41.000000,,2013-11-30 16:53:00,
2013-11-30 09:02:00,43.0,17.0,-100.00,NNW,328,2.0,7.0,35,0.00,,,-99.99,41.000000,,2013-11-30 17:02:00,
2013-11-30 09:22:00,43.0,17.0,-100.00,NNW,328,2.0,7.0,35,0.00,,,-99.99,41.000000,,2013-11-30 17:22:00,
2013-11-30 09:53:00,48.0,19.0,-100.00,SSE,149,3.0,5.0,31,0.00,,,0.00,265.000000,,2013-11-30 17:53:00,
2013-11-30 10:01:00,48.0,19.0,-100.00,SSE,149,3.0,5.0,31,0.00,,,0.00,265.000000,,2013-11-30 18:01:00,
2013-11-30 10:12:00,48.0,19.0,-100.00,SSE,149,3.0,5.0,31,0.00,,,0.00,265.000000,,2013-11-30 18:12:00,
2013-11-30 10:21:00,48.0,19.0,-100.00,SSE,149,3.0,5.0,31,0.00,,,0.00,265.000000,,2013-11-30 18:21:00,
2013-11-30 10:52:00,51.0,22.0,-100.00,SE,134,4.0,10.0,32,0.00,,,0.00,485.000000,,2013-11-30 18:52:00,
2013-11-30 11:01:00,51.0,22.0,-100.00,SE,134,4.0,10.0,32,0.00,,,0.00,485.000000,,2013-11-30 19:01:00,
2013-11-30 11:21:00,51.0,22.0,-100.00,SE,134,4.0,10.0,32,0.00,,,0.00,485.000000,,2013-11-30 19:21:00,
2013-11-30 11:52:00,52.0,24.0,-100.00,SE,130,6.0,11.0,33,0.00,,,0.00,639.000000,,2013-11-30 19:52:00,
2013-11-30 12:02:00,52.0,24.0,-100.00,SE,130,6.0,11.0,33,0.00,,,0.00,639.000000,,2013-11-30 20:02:00,
2013-11-30 12:11:00,52.0,24.0,-100.00,SE,130,6.0,11.0,33,0.00,,,0.00,639.000000,,2013-11-30 20:11:00,
2013-11-30 12:22:00,52.0,24.0,-100.00,SE,130,6.0,11.0,33,0.00,,,0.00,639.000000,,2013-11-30 20:22:00,
2013-11-30 12:52:00,51.0,22.0,-100.00,SE,139,5.0,11.0,32,0.00,,,0.00,733.000000,,2013-11-30 20:52:00,
2013-11-30 13:02:00,51.0,22.0,-100.00,SE,139,5.0,11.0,32,0.00,,,0.00,733.000000,,2013-11-30 21:02:00,
2013-11-30 13:11:00,51.0,22.0,-100.00,SE,139,5.0,11.0,32,0.00,,,0.00,733.000000,,2013-11-30 21:11:00,
2013-11-30 13:21:00,51.0,22.0,-100.00,SE,139,5.0,11.0,32,0.00,,,0.00,733.000000,,2013-11-30 21:21:00,
2013-11-30 13:53:00,51.0,24.0,-100.00,East,86,6.0,11.0,34,0.00,,,-99.99,751.000000,,2013-11-30 21:53:00,
2013-11-30 14:03:00,51.0,24.0,-100.00,East,86,6.0,11.0,34,0.00,,,-99.99,751.000000,,2013-11-30 22:03:00,
2013-11-30 14:12:00,51.0,24.0,-100.00,East,86,6.0,11.0,34,0.00,,,-99.99,751.000000,,2013-11-30 22:12:00,
2013-11-30 14:23:00,51.0,24.0,-100.00,East,86,6.0,11.0,34,0.00,,,-99.99,751.000000,,2013-11-30 22:23:00,
2013-11-30 14:52:00,50.0,24.0,-100.00,ESE,105,6.0,11.0,36,0.00,,,0.00,687.000000,,2013-11-30 22:52:00,
2013-11-30 15:02:00,50.0,24.0,-100.00,ESE,105,6.0,11.0,36,0.00,,,0.00,687.000000,,2013-11-30 23:02:00,
2013-11-30 15:12:00,50.0,24.0,-100.00,ESE,105,6.0,11.0,36,0.00,,,0.00,687.000000,,2013-11-30 23:12:00,
2013-11-30 15:22:00,50.0,24.0,-100.00,ESE,105,6.0,11.0,36,0.00,,,0.00,687.000000,,2013-11-30 23:22:00,
2013-11-30 15:53:00,49.0,23.0,-100.00,East,92,4.0,10.0,35,0.00,,,0.00,554.000000,,2013-11-30 23:53:00,
2013-11-30 16:02:00,49.0,23.0,-100.00,East,92,4.0,10.0,35,0.00,,,0.00,554.000000,,2013-12-01 00:02:00,
2013-11-30 16:11:00,49.0,23.0,-100.00,East,92,4.0,10.0,35,0.00,,,0.00,554.000000,,2013-12-01 00:11:00,
2013-11-30 16:21:00,49.0,23.0,-100.00,East,92,4.0,10.0,35,0.00,,,0.00,554.000000,,2013-12-01 00:21:00,
2013-11-30 16:52:00,48.0,21.0,-100.00,WSW,254,3.0,9.0,34,0.00,,,0.00,362.000000,,2013-12-01 00:52:00,
2013-11-30 17:01:00,48.0,21.0,-100.00,WSW,254,3.0,9.0,34,0.00,,,0.00,362.000000,,2013-12-01 01:01:00,
2013-11-30 17:11:00,48.0,21.0,-100.00,WSW,254,3.0,9.0,34,0.00,,,0.00,362.000000,,2013-12-01 01:11:00,
2013-11-30 17:21:00,48.0,21.0,-100.00,WSW,254,3.0,9.0,34,0.00,,,0.00,362.000000,,2013-12-01 01:21:00,
2013-11-30 17:52:00,48.0,24.0,-100.00,WNW,282,5.0,6.0,39,0.00,,,0.00,137.000000,,2013-12-01 01:52:00,
2013-11-30 18:01:00,48.0,24.0,-100.00,WNW,282,5.0,6.0,39,0.00,,,0.00,137.000000,,2013-12-01 02:01:00,
2013-11-30 18:11:00,48.0,24.0,-100.00,WNW,282,5.0,6.0,39,0.00,,,0.00,137.000000,,2013-12-01 02:11:00,
2013-11-30 18:21:00,48.0,24.0,-100.00,WNW,282,5.0,6.0,39,0.00,,,0.00,137.000000,,2013-12-01 02:21:00,
2013-11-30 18:52:00,43.0,20.0,-100.00,NW,312,3.0,7.0,40,0.00,,,0.00,3.000000,,2013-12-01 02:52:00,
2013-11-30 19:01:00,43.0,20.0,-100.00,NW,312,3.0,7.0,40,0.00,,,0.00,3.000000,,2013-12-01 03:01:00,
2013-11-30 19:11:00,43.0,20.0,-100.00,NW,312,3.0,7.0,40,0.00,,,0.00,3.000000,,2013-12-01 03:11:00,
2013-11-30 19:21:00,43.0,20.0,-100.00,NW,312,3.0,7.0,40,0.00,,,0.00,3.000000,,2013-12-01 03:21:00,
2013-11-30 19:53:00,44.0,21.0,-100.00,NNW,327,7.0,7.0,40,0.00,,,0.00,0.000000,,2013-12-01 03:53:00,
2013-11-30 20:02:00,-999.0,-99.9,-100.00,NNW,327,7.0,7.0,-999,0.00,,,0.00,0.000000,,2013-12-01 04:02:00,
2013-11-30 20:12:00,44.0,21.0,-100.00,NNW,327,7.0,7.0,40,0.00,,,0.00,0.000000,,2013-12-01 04:12:00,
2013-11-30 20:22:00,44.0,21.0,-100.00,NNW,327,7.0,7.0,40,0.00,,,0.00,0.000000,,2013-12-01 04:22:00,
2013-11-30 20:52:00,44.0,22.0,-100.00,NNW,338,7.0,9.0,41,0.00,,,0.00,0.000000,,2013-12-01 04:52:00,
2013-11-30 21:02:00,44.0,22.0,-100.00,NNW,338,7.0,9.0,41,0.00,,,0.00,0.000000,,2013-12-01 05:02:00,
2013-11-30 21:12:00,44.0,22.0,-100.00,NNW,338,7.0,9.0,41,0.00,,,0.00,0.000000,,2013-12-01 05:12:00,
2013-11-30 21:22:00,44.0,22.0,-100.00,NNW,338,7.0,9.0,41,0.00,,,0.00,0.000000,,2013-12-01 05:22:00,
2013-11-30 21:53:00,44.0,22.0,-100.00,NNW,346,6.0,10.0,41,0.00,,,0.00,0.000000,,2013-12-01 05:53:00,
2013-11-30 22:02:00,44.0,22.0,-100.00,NNW,346,6.0,10.0,41,0.00,,,0.00,0.000000,,2013-12-01 06:02:00,
2013-11-30 22:12:00,44.0,22.0,-100.00,NNW,346,6.0,10.0,41,0.00,,,0.00,0.000000,,2013-12-01 06:12:00,
2013-11-30 22:22:00,44.0,22.0,-100.00,NNW,346,6.0,10.0,41,0.00,,,0.00,0.000000,,2013-12-01 06:22:00,
2013-11-30 22:52:00,44.0,22.0,-100.00,North,353,3.0,11.0,42,0.00,,,0.00,0.000000,,2013-12-01 06:52:00,
2013-11-30 23:01:00,44.0,22.0,-100.00,North,353,3.0,11.0,42,0.00,,,0.00,0.000000,,2013-12-01 07:01:00,
2013-11-30 23:12:00,44.0,22.0,-100.00,North,353,3.0,11.0,42,0.00,,,0.00,0.000000,,2013-12-01 07:12:00,
2013-11-30 23:22:00,44.0,22.0,-100.00,North,353,3.0,11.0,42,0.00,,,0.00,0.000000,,2013-12-01 07:22:00,
2013-11-30 23:52:00,42.0,18.0,-100.00,ESE,118,2.0,9.0,38,0.00,,,0.00,0.000000,,2013-12-01 07:52:00,